Bonsall, California
Current Conditions -  °F | °C
As of 12:15 PM on Thursday 23 Oct 2014 (Local Time) from KL18 Reporting Station
Clear Clear  
Wind Chill: 84°   Ceiling: Unl
Heat Index: 84°   Visibility: 10mi
Dew Point: 46°   Wind: 7mph
Humidity: 27%   Direction: 240°WSW
Pressure: 29.99"   Gusts: NA
Location:  33.29°N, 117.23°W
Report Text: KL18 231915Z AUTO 24006KT 10SM CLR 29/08 A2999 RMK AO2
Loading
Personal Weather Stations






























Interactive Weather Map
Tropical Storm Tracking
New forecast layout! Learn more

10-Day Weather Forecast

Advertisements
Track Severe Weather on mobile